Time;durP1;ratioP1;P1;durP2;ratioP2;P2;SDS_P1;SDS_P2;PMS_P1;PMS_P2;Temp;Humidity;BMP_temperature;BMP_pressure;BME280_temperature;BME280_humidity;BME280_pressure;Samples;Min_cycle;Max_cycle;Signal;HPM_P1;HPM_P2
2021/03/18 00:01:32;;;;;;;10.30;2.75;;;15.00;50.10;;;;;;5098443;28;20077;-74
2021/03/18 00:03:58;;;;;;;13.27;3.40;;;14.90;50.40;;;;;;5089762;28;20173;-75
2021/03/18 00:06:25;;;;;;;9.82;3.35;;;14.90;50.30;;;;;;5097460;28;20049;-75
2021/03/18 00:08:52;;;;;;;14.70;3.40;;;14.90;50.50;;;;;;5097776;28;20036;-76
2021/03/18 00:11:21;;;;;;;13.68;2.50;;;14.80;50.70;;;;;;5087583;28;20103;-75
2021/03/18 00:13:48;;;;;;;15.30;3.92;;;14.80;50.30;;;;;;5094655;28;20173;-75
2021/03/18 00:16:15;;;;;;;11.43;2.92;;;14.70;50.30;;;;;;5093501;28;20032;-74
2021/03/18 00:18:51;;;;;;;10.30;4.30;;;14.80;50.10;;;;;;5090023;28;20032;-73
2021/03/18 00:21:18;;;;;;;9.48;3.05;;;14.70;50.20;;;;;;5096066;28;20023;-74
2021/03/18 00:23:45;;;;;;;10.98;2.60;;;14.60;50.40;;;;;;5097974;28;20047;-76
2021/03/18 00:26:12;;;;;;;16.42;3.03;;;14.60;50.50;;;;;;5097526;28;20365;-75
2021/03/18 00:28:39;;;;;;;11.18;3.33;;;14.50;50.70;;;;;;5087536;28;20053;-75
2021/03/18 00:31:07;;;;;;;6.40;2.95;;;14.50;50.70;;;;;;5095329;28;20035;-76
2021/03/18 00:33:34;;;;;;;8.30;2.53;;;14.40;49.90;;;;;;5097629;28;20491;-77
2021/03/18 00:36:00;;;;;;;9.40;2.78;;;14.30;49.50;;;;;;5098013;28;20107;-76
2021/03/18 00:38:27;;;;;;;9.35;3.30;;;14.20;50.00;;;;;;5099280;28;20024;-76
2021/03/18 00:41:03;;;;;;;13.23;3.03;;;14.10;50.20;;;;;;5099209;28;20358;-76
2021/03/18 00:43:30;;;;;;;13.02;3.88;;;14.10;50.50;;;;;;5096784;28;20081;-77
2021/03/18 00:45:56;;;;;;;13.07;3.95;;;14.10;50.50;;;;;;5098338;28;20107;-76
2021/03/18 00:48:24;;;;;;;7.88;3.05;;;14.10;50.30;;;;;;5105456;28;20028;-76
2021/03/18 00:50:53;;;;;;;7.85;3.08;;;14.10;50.50;;;;;;5109438;28;20031;-75
2021/03/18 00:53:22;;;;;;;6.93;3.80;;;14.10;50.40;;;;;;5100098;28;20031;-76
2021/03/18 00:55:50;;;;;;;15.02;3.42;;;14.00;50.60;;;;;;5099965;28;20039;-76
2021/03/18 00:58:17;;;;;;;12.52;3.38;;;14.00;50.70;;;;;;5100858;28;20028;-76
2021/03/18 01:00:48;;;;;;;11.32;2.88;;;14.00;50.70;;;;;;5094858;28;20039;-76
2021/03/18 01:03:15;;;;;;;10.00;3.00;;;13.90;50.90;;;;;;5100022;28;20031;-75
2021/03/18 01:05:59;;;;;;;8.95;3.75;;;13.90;51.10;;;;;;5103873;28;20035;-75
2021/03/18 01:08:27;;;;;;;15.20;3.13;;;13.90;51.10;;;;;;5101517;28;20368;-75
2021/03/18 01:11:00;;;;;;;8.13;3.80;;;13.80;51.50;;;;;;5096795;28;20020;-75
2021/03/18 01:13:27;;;;;;;8.32;2.90;;;13.90;51.40;;;;;;5101430;28;20034;-76
2021/03/18 01:16:10;;;;;;;12.75;3.17;;;13.80;51.70;;;;;;5099856;28;20356;-76
2021/03/18 01:18:59;;;;;;;12.32;3.40;;;13.90;52.00;;;;;;5104761;28;20039;-76
2021/03/18 01:21:31;;;;;;;10.88;3.00;;;13.90;51.80;;;;;;5103212;28;20085;-76
2021/03/18 01:23:58;;;;;;;9.75;2.80;;;13.70;52.20;;;;;;5099544;28;20032;-76
2021/03/18 01:26:24;;;;;;;12.43;3.30;;;13.80;52.30;;;;;;5097658;28;20433;-76
2021/03/18 01:28:51;;;;;;;10.60;3.80;;;13.90;51.90;;;;;;5100702;28;20016;-76
2021/03/18 01:31:18;;;;;;;9.45;3.38;;;13.90;51.90;;;;;;5095512;28;20368;-77
2021/03/18 01:33:44;;;;;;;8.27;3.00;;;13.80;52.10;;;;;;5099786;28;20040;-76
2021/03/18 01:36:12;;;;;;;7.65;2.70;;;13.80;51.80;;;;;;5101646;28;20047;-75
2021/03/18 01:38:44;;;;;;;12.32;3.60;;;13.90;51.30;;;;;;5103265;28;20119;-74
2021/03/18 01:41:11;;;;;;;15.45;2.85;;;14.00;51.10;;;;;;5100779;28;20032;-75
2021/03/18 01:43:39;;;;;;;6.30;2.58;;;13.90;50.90;;;;;;5103975;28;20028;-74
2021/03/18 01:46:06;;;;;;;6.72;2.78;;;13.90;51.10;;;;;;5099568;28;20027;-77
2021/03/18 01:48:32;;;;;;;10.95;3.70;;;13.80;51.00;;;;;;5103783;28;20020;-77
2021/03/18 01:51:00;;;;;;;15.20;3.67;;;13.90;51.00;;;;;;5099793;28;20527;-76
2021/03/18 01:53:27;;;;;;;8.27;3.22;;;13.80;50.90;;;;;;5097747;28;20111;-76
2021/03/18 01:55:57;;;;;;;6.93;3.13;;;13.70;51.10;;;;;;5102420;28;20055;-77
2021/03/18 01:58:24;;;;;;;21.48;9.82;;;13.80;50.80;;;;;;5101596;28;20028;-76
2021/03/18 02:01:00;;;;;;;10.27;4.18;;;13.80;50.70;;;;;;5101019;28;20042;-76
2021/03/18 02:03:27;;;;;;;6.25;2.75;;;13.90;50.50;;;;;;5103183;28;20025;-77
2021/03/18 02:05:54;;;;;;;10.50;2.90;;;13.90;50.60;;;;;;5086133;28;20156;-77
2021/03/18 02:08:22;;;;;;;9.18;3.42;;;13.80;50.70;;;;;;5105493;28;20052;-77
2021/03/18 02:10:50;;;;;;;6.18;2.47;;;13.80;50.60;;;;;;5101118;28;20033;-77
2021/03/18 02:13:17;;;;;;;11.48;3.17;;;13.80;50.40;;;;;;5098484;28;20422;-75
2021/03/18 02:15:51;;;;;;;13.88;2.85;;;13.80;50.60;;;;;;5102863;28;20024;-75
2021/03/18 02:18:48;;;;;;;5.38;2.70;;;13.90;50.30;;;;;;5101778;28;20028;-75
2021/03/18 02:21:39;;;;;;;11.68;3.33;;;13.80;50.80;;;;;;5099319;28;20061;-75
2021/03/18 02:24:43;;;;;;;6.90;2.35;;;13.70;50.80;;;;;;5099501;28;20330;-74
2021/03/18 02:27:59;;;;;;;12.82;3.55;;;13.80;50.20;;;;;;5074057;28;20040;-75
2021/03/18 02:31:00;;;;;;;10.20;3.25;;;13.80;50.60;;;;;;5097514;28;20016;-75
2021/03/18 02:34:08;;;;;;;10.52;3.80;;;13.80;50.50;;;;;;5101533;28;20123;-75
2021/03/18 02:36:46;;;;;;;4.78;2.50;;;13.70;50.60;;;;;;5087994;28;20047;-75
2021/03/18 02:39:28;;;;;;;14.38;3.95;;;13.70;50.70;;;;;;5091834;28;20028;-75
2021/03/18 02:41:58;;;;;;;11.98;4.05;;;13.60;51.10;;;;;;5095439;28;20051;-75
2021/03/18 02:44:27;;;;;;;7.55;3.00;;;13.70;51.30;;;;;;5097629;28;20068;-75
2021/03/18 02:47:03;;;;;;;8.70;2.80;;;13.60;51.60;;;;;;5098679;28;20438;-76
2021/03/18 02:49:37;;;;;;;12.85;2.85;;;13.70;51.60;;;;;;5103917;28;20044;-76
2021/03/18 02:52:05;;;;;;;11.55;3.00;;;13.50;51.60;;;;;;5101993;28;20041;-75
2021/03/18 02:54:33;;;;;;;7.00;3.20;;;13.70;51.80;;;;;;5100148;28;20031;-75
2021/03/18 02:57:03;;;;;;;7.13;3.70;;;13.70;51.60;;;;;;5102479;28;20476;-74
2021/03/18 02:59:37;;;;;;;9.45;3.17;;;13.70;51.60;;;;;;5097938;28;20039;-75
2021/03/18 03:02:10;;;;;;;11.35;3.05;;;13.60;51.70;;;;;;5097955;28;20027;-74
2021/03/18 03:04:38;;;;;;;6.78;2.58;;;13.50;51.70;;;;;;5096078;28;20065;-76
2021/03/18 03:07:07;;;;;;;16.20;3.65;;;13.50;51.90;;;;;;5097959;28;20070;-75
2021/03/18 03:09:35;;;;;;;8.40;2.80;;;13.50;52.10;;;;;;5104042;28;20358;-76
2021/03/18 03:12:04;;;;;;;9.10;3.40;;;13.40;52.20;;;;;;5104952;28;20016;-75
2021/03/18 03:14:32;;;;;;;10.02;3.47;;;13.50;52.10;;;;;;5107122;28;20476;-76
2021/03/18 03:17:00;;;;;;;11.35;3.03;;;13.50;52.20;;;;;;5102236;28;20444;-77
2021/03/18 03:19:28;;;;;;;11.85;3.88;;;13.40;52.30;;;;;;5105863;28;20089;-76
2021/03/18 03:21:56;;;;;;;10.48;4.82;;;13.40;52.10;;;;;;5106862;28;20031;-76
2021/03/18 03:24:24;;;;;;;11.63;3.15;;;13.40;52.10;;;;;;5103683;28;20457;-76
2021/03/18 03:26:54;;;;;;;5.97;2.55;;;13.30;52.50;;;;;;5099455;28;20027;-76
2021/03/18 03:29:20;;;;;;;9.93;2.90;;;13.30;52.50;;;;;;5105931;28;20103;-77
2021/03/18 03:31:47;;;;;;;7.57;2.15;;;13.40;52.70;;;;;;5104135;28;20323;-77
2021/03/18 03:34:14;;;;;;;9.35;2.50;;;13.30;52.60;;;;;;5104381;28;20115;-76
2021/03/18 03:36:40;;;;;;;9.25;3.28;;;13.30;52.70;;;;;;5100859;28;20020;-76
2021/03/18 03:39:08;;;;;;;12.77;3.45;;;13.30;52.70;;;;;;5103785;28;20030;-77
2021/03/18 03:41:35;;;;;;;18.55;4.72;;;13.40;52.80;;;;;;5102740;28;20062;-77
2021/03/18 03:44:03;;;;;;;10.75;3.22;;;13.40;52.40;;;;;;5103796;28;20019;-77
2021/03/18 03:46:30;;;;;;;11.65;2.72;;;13.40;52.40;;;;;;5102201;28;20461;-77
2021/03/18 03:48:56;;;;;;;9.60;2.80;;;13.40;52.60;;;;;;5104316;28;20026;-76
2021/03/18 03:51:27;;;;;;;3.83;2.55;;;13.30;52.80;;;;;;5104066;28;20015;-77
2021/03/18 03:53:58;;;;;;;6.22;2.75;;;13.30;52.90;;;;;;5094301;28;20359;-76
2021/03/18 03:56:28;;;;;;;10.98;3.60;;;13.30;53.00;;;;;;5099529;28;20492;-75
2021/03/18 03:59:00;;;;;;;9.32;2.88;;;13.30;52.80;;;;;;5102312;28;20032;-74
2021/03/18 04:01:37;;;;;;;6.18;2.95;;;13.20;52.90;;;;;;5095384;28;20024;-74
2021/03/18 04:04:12;;;;;;;8.27;2.88;;;13.20;53.00;;;;;;5098247;28;20019;-74
2021/03/18 04:06:39;;;;;;;8.73;2.95;;;13.20;53.20;;;;;;5099149;28;20015;-74
2021/03/18 04:09:07;;;;;;;8.55;3.13;;;13.20;53.20;;;;;;5103203;28;20024;-73
2021/03/18 04:11:36;;;;;;;8.27;2.97;;;13.30;53.30;;;;;;5101368;28;20016;-73
2021/03/18 04:14:09;;;;;;;9.48;3.03;;;13.20;53.50;;;;;;5098145;28;20028;-73
2021/03/18 04:16:37;;;;;;;11.45;3.42;;;13.30;53.70;;;;;;5106123;28;20038;-73
2021/03/18 04:19:05;;;;;;;12.65;3.90;;;13.30;53.60;;;;;;5105615;28;20446;-73
2021/03/18 04:21:36;;;;;;;5.82;2.20;;;13.20;53.60;;;;;;5104872;28;20032;-73
2021/03/18 04:24:04;;;;;;;5.97;2.88;;;13.10;54.10;;;;;;5102606;28;20016;-73
2021/03/18 04:26:35;;;;;;;6.70;2.95;;;13.10;54.10;;;;;;5104059;28;20028;-73
2021/03/18 04:29:06;;;;;;;6.75;2.70;;;13.10;54.10;;;;;;5105403;28;20417;-73
2021/03/18 04:31:37;;;;;;;8.30;3.15;;;13.10;54.10;;;;;;5103655;28;20035;-73
2021/03/18 04:34:04;;;;;;;10.10;2.90;;;13.10;54.20;;;;;;5099315;28;20031;-73
2021/03/18 04:36:32;;;;;;;10.70;3.42;;;13.20;53.90;;;;;;5100484;28;20087;-74
2021/03/18 04:38:59;;;;;;;13.38;3.17;;;13.20;54.00;;;;;;5103021;28;20032;-74
2021/03/18 04:41:28;;;;;;;6.78;3.25;;;13.10;54.10;;;;;;5102840;28;20371;-73
2021/03/18 04:43:56;;;;;;;6.80;2.53;;;13.00;54.20;;;;;;5096886;28;20024;-73
2021/03/18 04:46:25;;;;;;;5.63;2.80;;;13.00;54.40;;;;;;5100521;28;20133;-74
2021/03/18 04:48:57;;;;;;;5.03;2.15;;;13.00;54.60;;;;;;5104952;28;20021;-74
2021/03/18 04:51:24;;;;;;;9.52;3.78;;;13.00;54.50;;;;;;5121398;27;20035;-72
2021/03/18 04:53:51;;;;;;;8.57;3.53;;;13.10;54.50;;;;;;5108924;28;20124;-72
2021/03/18 04:56:19;;;;;;;7.13;3.03;;;13.10;54.60;;;;;;5102258;28;20506;-73
2021/03/18 04:58:47;;;;;;;8.55;3.22;;;13.10;54.50;;;;;;5105775;28;20027;-72
2021/03/18 05:01:17;;;;;;;9.32;3.80;;;13.20;54.20;;;;;;5101475;28;20020;-72
2021/03/18 05:03:46;;;;;;;9.52;3.40;;;13.20;54.10;;;;;;5105831;28;20024;-73
2021/03/18 05:06:15;;;;;;;9.93;3.30;;;13.10;54.20;;;;;;5105410;28;20016;-73
2021/03/18 05:08:42;;;;;;;4.53;2.60;;;13.00;54.40;;;;;;5104919;28;20031;-72
2021/03/18 05:11:11;;;;;;;8.35;2.70;;;12.90;54.60;;;;;;5108312;28;20031;-73
2021/03/18 05:13:40;;;;;;;6.03;3.00;;;13.00;54.50;;;;;;5094686;28;20166;-72
2021/03/18 05:16:07;;;;;;;5.57;2.22;;;13.00;54.60;;;;;;5097687;28;20683;-72
2021/03/18 05:18:35;;;;;;;5.85;2.45;;;12.90;54.70;;;;;;5098728;28;20024;-73
2021/03/18 05:21:04;;;;;;;8.15;3.45;;;12.80;54.90;;;;;;5098505;28;20034;-73
2021/03/18 05:23:32;;;;;;;7.95;2.92;;;12.90;54.80;;;;;;5106608;28;20031;-73
2021/03/18 05:25:59;;;;;;;7.18;3.50;;;13.00;54.70;;;;;;5103207;28;20407;-73
2021/03/18 05:28:27;;;;;;;11.55;3.38;;;13.00;54.40;;;;;;5099723;28;20081;-73
2021/03/18 05:30:54;;;;;;;9.02;2.75;;;13.00;54.50;;;;;;5104117;28;20517;-72
2021/03/18 05:33:21;;;;;;;9.02;3.40;;;13.00;54.50;;;;;;5100561;28;20160;-72
2021/03/18 05:35:47;;;;;;;6.18;2.17;;;12.90;54.70;;;;;;5095212;28;20027;-75
2021/03/18 05:38:15;;;;;;;7.70;3.22;;;12.80;55.30;;;;;;5101042;28;20043;-74
2021/03/18 05:40:46;;;;;;;13.23;3.10;;;12.80;55.80;;;;;;5102891;28;20103;-74
2021/03/18 05:43:12;;;;;;;8.48;3.20;;;12.90;55.50;;;;;;5095706;28;20404;-72
2021/03/18 05:45:39;;;;;;;7.53;2.90;;;12.80;55.90;;;;;;5099709;28;20449;-73
2021/03/18 05:48:06;;;;;;;6.93;2.55;;;12.80;56.10;;;;;;5101729;28;20500;-73
2021/03/18 05:50:33;;;;;;;7.82;4.28;;;12.80;56.20;;;;;;5091984;28;20037;-72
2021/03/18 05:53:02;;;;;;;6.32;3.05;;;12.80;56.10;;;;;;5105425;28;20028;-73
2021/03/18 05:55:29;;;;;;;6.53;3.17;;;12.80;56.20;;;;;;5103014;28;20090;-73
2021/03/18 05:57:56;;;;;;;7.05;2.90;;;12.80;56.00;;;;;;5103663;28;20446;-73
2021/03/18 06:00:24;;;;;;;9.60;3.55;;;12.90;55.90;;;;;;5100002;28;20476;-73
2021/03/18 06:02:50;;;;;;;11.15;2.80;;;12.90;55.40;;;;;;5099554;28;20039;-73
2021/03/18 06:05:18;;;;;;;8.52;3.03;;;13.00;55.10;;;;;;5094375;28;20027;-72
2021/03/18 06:07:47;;;;;;;6.30;3.47;;;13.10;55.10;;;;;;5098227;28;20020;-72
2021/03/18 06:10:20;;;;;;;4.55;2.95;;;12.90;55.30;;;;;;5101145;28;20107;-72
2021/03/18 06:12:50;;;;;;;7.78;2.70;;;12.80;55.50;;;;;;5102636;28;20123;-72
2021/03/18 06:15:17;;;;;;;7.45;2.60;;;12.70;55.90;;;;;;5102907;28;20020;-73
2021/03/18 06:17:44;;;;;;;10.23;3.22;;;12.80;55.50;;;;;;5105762;28;20035;-73
2021/03/18 06:20:13;;;;;;;5.97;3.38;;;12.90;55.50;;;;;;5122513;28;20036;-73
2021/03/18 06:22:43;;;;;;;6.13;2.55;;;12.80;55.80;;;;;;5113483;28;20070;-73
2021/03/18 06:25:26;;;;;;;10.05;2.80;;;12.80;55.80;;;;;;5110127;28;20020;-73
2021/03/18 06:28:15;;;;;;;7.05;2.65;;;12.70;55.50;;;;;;5118475;28;20055;-74
2021/03/18 06:30:55;;;;;;;7.82;4.30;;;12.70;55.80;;;;;;5117564;28;20020;-73
2021/03/18 06:33:24;;;;;;;6.55;2.90;;;12.70;55.60;;;;;;5102916;28;20039;-73
2021/03/18 06:35:51;;;;;;;7.13;2.83;;;12.70;55.70;;;;;;5102838;28;20032;-73
2021/03/18 06:38:17;;;;;;;9.45;2.80;;;12.70;55.60;;;;;;5097869;28;20465;-73
2021/03/18 06:40:46;;;;;;;6.75;2.72;;;12.80;55.50;;;;;;5100546;28;20055;-73
2021/03/18 06:43:13;;;;;;;5.00;2.35;;;12.60;56.00;;;;;;5102818;28;20074;-73
2021/03/18 06:45:42;;;;;;;4.03;2.35;;;12.50;56.40;;;;;;5098642;28;20357;-73
2021/03/18 06:48:18;;;;;;;7.72;2.67;;;12.60;56.20;;;;;;5098734;28;20016;-73
2021/03/18 06:50:48;;;;;;;7.03;3.40;;;12.40;56.70;;;;;;5102733;28;20027;-73
2021/03/18 06:53:28;;;;;;;4.55;3.53;;;12.40;56.70;;;;;;5094500;28;20032;-73
2021/03/18 06:55:55;;;;;;;18.38;12.25;;;12.30;56.80;;;;;;5100152;28;20445;-73
2021/03/18 06:58:25;;;;;;;40.55;24.98;;;12.40;56.80;;;;;;5101399;28;20034;-73
2021/03/18 07:00:54;;;;;;;27.85;14.77;;;12.40;56.50;;;;;;5101974;28;20023;-73
2021/03/18 07:03:39;;;;;;;13.98;6.78;;;12.50;55.70;;;;;;5101196;28;20031;-73
2021/03/18 07:06:09;;;;;;;25.30;15.63;;;12.50;55.70;;;;;;5103481;28;20019;-73
2021/03/18 07:08:37;;;;;;;6.30;4.53;;;12.50;55.40;;;;;;5096816;28;20495;-73
2021/03/18 07:11:24;;;;;;;35.47;21.70;;;12.60;55.20;;;;;;5101319;28;20020;-73
2021/03/18 07:13:51;;;;;;;9.23;3.28;;;12.70;54.50;;;;;;5104169;28;20032;-74
2021/03/18 07:16:18;;;;;;;16.92;5.32;;;13.00;53.70;;;;;;5099089;28;20024;-73
2021/03/18 07:18:58;;;;;;;10.63;6.95;;;13.00;53.50;;;;;;5104639;28;20034;-74
2021/03/18 07:21:40;;;;;;;9.52;4.93;;;13.10;53.20;;;;;;5097861;28;20032;-74
2021/03/18 07:24:38;;;;;;;7.90;4.13;;;13.20;52.80;;;;;;5089353;28;20024;-74
2021/03/18 07:27:16;;;;;;;8.52;2.83;;;13.30;52.50;;;;;;5076813;28;20032;-72
2021/03/18 07:29:44;;;;;;;12.77;6.40;;;13.40;52.50;;;;;;5095903;28;20020;-72
2021/03/18 07:32:12;;;;;;;7.90;4.38;;;13.40;52.60;;;;;;5102134;28;20089;-72
2021/03/18 07:34:40;;;;;;;12.93;6.57;;;13.60;52.00;;;;;;5099903;28;20408;-73
2021/03/18 07:37:08;;;;;;;15.75;8.05;;;13.40;52.70;;;;;;5097837;28;20043;-72
2021/03/18 07:39:36;;;;;;;17.70;10.75;;;13.40;52.60;;;;;;5091450;28;20025;-72
2021/03/18 07:42:04;;;;;;;9.38;4.30;;;13.70;51.90;;;;;;5103081;28;20103;-72
2021/03/18 07:44:31;;;;;;;6.35;2.85;;;13.60;52.00;;;;;;5099632;28;20036;-72
2021/03/18 07:47:00;;;;;;;6.35;3.17;;;13.70;51.70;;;;;;5094045;28;20020;-73
2021/03/18 07:49:40;;;;;;;8.43;3.05;;;13.70;51.70;;;;;;5099406;28;20073;-72
2021/03/18 07:52:11;;;;;;;7.68;3.30;;;13.50;52.40;;;;;;5107016;28;20023;-73
2021/03/18 07:54:39;;;;;;;10.02;2.65;;;13.50;52.40;;;;;;5100588;28;21557;-72
2021/03/18 07:57:14;;;;;;;6.43;2.30;;;13.40;52.90;;;;;;5105623;28;20024;-72
2021/03/18 07:59:42;;;;;;;11.38;3.92;;;13.30;53.10;;;;;;5103021;28;20646;-72
2021/03/18 08:02:17;;;;;;;9.23;2.83;;;13.20;53.30;;;;;;5107390;28;20020;-72
2021/03/18 08:04:46;;;;;;;10.93;3.25;;;13.00;53.80;;;;;;5101715;28;20144;-72
2021/03/18 08:07:32;;;;;;;3.75;2.10;;;13.00;54.20;;;;;;5103383;28;20099;-72
2021/03/18 08:09:59;;;;;;;6.82;3.20;;;12.90;54.20;;;;;;5103693;28;20123;-72
2021/03/18 08:12:45;;;;;;;9.27;3.65;;;12.90;54.40;;;;;;5102670;28;20026;-72
2021/03/18 08:15:22;;;;;;;7.35;2.70;;;12.90;54.50;;;;;;5106914;28;20357;-72
2021/03/18 08:17:49;;;;;;;8.18;2.78;;;12.90;54.40;;;;;;5103545;28;20446;-72
2021/03/18 08:20:38;;;;;;;5.18;2.40;;;12.80;54.60;;;;;;5104357;28;20441;-72
2021/03/18 08:23:23;;;;;;;7.43;2.50;;;12.60;54.80;;;;;;5090349;28;20133;-72
2021/03/18 08:26:34;;;;;;;5.78;2.60;;;12.60;55.10;;;;;;5103240;28;20020;-72
2021/03/18 08:29:04;;;;;;;8.85;2.40;;;12.60;55.50;;;;;;5104061;28;20043;-72
2021/03/18 08:31:33;;;;;;;8.25;2.92;;;12.50;56.20;;;;;;5107352;28;20028;-73
2021/03/18 08:34:01;;;;;;;9.40;3.00;;;12.50;55.70;;;;;;5105671;28;20267;-72
2021/03/18 08:36:38;;;;;;;6.30;2.95;;;12.50;56.00;;;;;;5107348;28;20020;-72
2021/03/18 08:39:08;;;;;;;4.53;2.10;;;12.50;55.90;;;;;;5105796;28;20019;-72
2021/03/18 08:41:39;;;;;;;8.93;3.05;;;12.50;56.10;;;;;;5106033;28;20028;-72
2021/03/18 08:44:26;;;;;;;7.78;3.00;;;12.50;55.80;;;;;;5104086;28;20039;-72
2021/03/18 08:47:04;;;;;;;8.27;3.13;;;12.60;56.00;;;;;;5101889;28;20472;-72
2021/03/18 08:49:41;;;;;;;7.35;3.22;;;12.50;55.50;;;;;;5100956;28;20043;-72
2021/03/18 08:52:12;;;;;;;6.85;2.88;;;12.50;56.00;;;;;;5102504;28;20020;-72
2021/03/18 08:54:38;;;;;;;13.95;4.65;;;12.60;55.70;;;;;;5105338;28;20102;-72
2021/03/18 08:57:22;;;;;;;11.15;3.83;;;12.60;55.40;;;;;;5101820;28;20027;-72
2021/03/18 08:59:52;;;;;;;5.35;3.00;;;12.60;55.50;;;;;;5104022;28;20024;-73
2021/03/18 09:02:24;;;;;;;8.48;3.00;;;12.50;55.50;;;;;;5102765;28;20110;-72
2021/03/18 09:04:51;;;;;;;6.15;2.30;;;12.50;56.00;;;;;;5102071;28;20420;-73
2021/03/18 09:07:23;;;;;;;6.00;2.70;;;12.40;56.20;;;;;;5102213;28;20339;-72
2021/03/18 09:10:00;;;;;;;;;;;12.40;56.50;;;;;;5098963;28;20036;-72
2021/03/18 09:12:42;;;;;;;5.82;2.20;;;12.50;56.00;;;;;;5103192;28;19907;-72
2021/03/18 09:15:10;;;;;;;10.90;3.97;;;12.40;56.60;;;;;;5104799;28;20024;-72
2021/03/18 09:17:37;;;;;;;6.28;2.95;;;12.50;56.50;;;;;;5105503;28;20023;-72
2021/03/18 09:20:05;;;;;;;4.85;2.60;;;12.50;56.40;;;;;;5103594;28;20028;-72
2021/03/18 09:22:32;;;;;;;13.32;4.10;;;12.50;56.40;;;;;;5103575;28;20111;-72
2021/03/18 09:24:58;;;;;;;6.95;2.42;;;12.50;56.60;;;;;;5102277;28;20020;-72
2021/03/18 09:27:25;;;;;;;5.88;2.83;;;12.50;56.90;;;;;;5105015;28;20081;-72
2021/03/18 09:29:51;;;;;;;10.23;3.13;;;12.50;57.30;;;;;;5104729;28;20036;-72
2021/03/18 09:32:20;;;;;;;9.02;2.55;;;12.70;56.30;;;;;;5104068;28;20024;-72
2021/03/18 09:34:46;;;;;;;7.30;2.33;;;12.70;56.40;;;;;;5103230;28;20059;-73
2021/03/18 09:37:13;;;;;;;6.00;2.80;;;12.60;56.60;;;;;;5105183;28;20330;-72
2021/03/18 09:39:48;;;;;;;4.97;2.00;;;12.70;56.80;;;;;;5103872;28;20111;-74
2021/03/18 09:42:16;;;;;;;3.75;1.80;;;12.70;57.00;;;;;;5104656;28;20039;-73
2021/03/18 09:44:43;;;;;;;5.68;2.50;;;12.70;57.50;;;;;;5102360;28;20465;-72
2021/03/18 09:47:10;;;;;;;11.20;3.13;;;12.70;57.60;;;;;;5104653;28;20465;-73
2021/03/18 09:49:43;;;;;;;13.70;3.25;;;12.80;57.50;;;;;;5104505;28;20024;-73
2021/03/18 09:52:21;;;;;;;5.25;2.60;;;12.80;57.70;;;;;;5103653;28;20032;-74
2021/03/18 09:54:49;;;;;;;5.30;2.35;;;12.80;58.40;;;;;;5099151;28;20028;-72
2021/03/18 09:57:15;;;;;;;10.70;2.78;;;12.80;58.60;;;;;;5100427;28;20056;-72
2021/03/18 09:59:42;;;;;;;7.25;2.33;;;12.80;58.70;;;;;;5100585;28;20027;-73
2021/03/18 10:02:09;;;;;;;7.20;3.20;;;12.70;59.30;;;;;;5098196;28;20106;-73
2021/03/18 10:04:42;;;;;;;6.70;3.00;;;12.80;58.80;;;;;;5101338;28;20058;-73
2021/03/18 10:07:09;;;;;;;10.18;3.30;;;12.80;59.10;;;;;;5106198;28;20012;-72
2021/03/18 10:09:39;;;;;;;10.07;3.30;;;12.90;58.90;;;;;;5102822;28;20019;-72
2021/03/18 10:12:14;;;;;;;10.15;4.68;;;12.80;59.20;;;;;;5102334;28;20020;-73
2021/03/18 10:15:05;;;;;;;12.85;4.10;;;12.80;59.70;;;;;;5102606;28;20032;-72
2021/03/18 10:17:41;;;;;;;15.20;4.85;;;12.70;59.50;;;;;;5102873;28;20036;-72
2021/03/18 10:20:22;;;;;;;16.05;4.82;;;12.60;59.70;;;;;;5100922;28;20020;-72
2021/03/18 10:22:58;;;;;;;12.20;3.97;;;12.50;59.80;;;;;;5102044;28;20028;-73
2021/03/18 10:25:27;;;;;;;13.60;4.57;;;12.50;60.70;;;;;;5098149;28;20458;-73
2021/03/18 10:28:09;;;;;;;20.25;5.53;;;12.40;61.70;;;;;;5102395;28;20366;-73
2021/03/18 10:30:39;;;;;;;14.18;3.95;;;12.40;61.30;;;;;;5102124;28;20020;-73
2021/03/18 10:33:18;;;;;;;16.65;4.82;;;12.40;61.10;;;;;;5101991;28;20035;-73
2021/03/18 10:36:01;;;;;;;16.63;3.95;;;12.50;62.10;;;;;;5102161;28;20034;-73
2021/03/18 10:38:32;;;;;;;13.15;4.43;;;12.30;61.00;;;;;;5100387;28;20025;-73
2021/03/18 10:41:05;;;;;;;14.57;4.27;;;12.40;62.50;;;;;;5102814;28;20046;-75
2021/03/18 10:43:34;;;;;;;11.77;4.53;;;12.30;62.50;;;;;;5103252;28;20476;-72
2021/03/18 10:46:03;;;;;;;10.43;4.95;;;12.30;61.90;;;;;;5101478;28;20107;-73
2021/03/18 10:48:32;;;;;;;12.18;4.00;;;12.30;62.70;;;;;;5104257;28;20028;-75
2021/03/18 10:51:09;;;;;;;9.23;3.88;;;12.30;63.10;;;;;;5101981;28;20020;-74
2021/03/18 10:53:38;;;;;;;11.88;4.43;;;12.20;62.10;;;;;;5102145;28;20035;-72
2021/03/18 10:56:11;;;;;;;12.35;4.05;;;12.20;63.50;;;;;;5100725;28;20122;-73
2021/03/18 10:58:38;;;;;;;19.65;4.80;;;12.10;64.10;;;;;;5100279;28;20020;-72
2021/03/18 11:01:14;;;;;;;11.05;5.05;;;12.10;63.10;;;;;;5101904;28;20373;-73
2021/03/18 11:03:43;;;;;;;15.25;5.03;;;12.10;63.80;;;;;;5103962;28;20560;-73
2021/03/18 11:06:23;;;;;;;9.32;3.72;;;12.20;64.20;;;;;;5102945;28;20016;-73
2021/03/18 11:08:56;;;;;;;14.15;4.93;;;12.10;63.40;;;;;;5101525;28;20016;-73
2021/03/18 11:11:32;;;;;;;11.52;4.50;;;12.20;63.70;;;;;;5101420;28;20468;-73
2021/03/18 11:14:15;;;;;;;8.43;3.78;;;12.20;63.20;;;;;;5100014;28;20468;-73
2021/03/18 11:16:42;;;;;;;12.93;4.50;;;12.20;63.40;;;;;;5101056;28;20084;-73
2021/03/18 11:19:13;;;;;;;13.90;3.72;;;12.30;63.60;;;;;;5101019;28;20095;-73
2021/03/18 11:21:46;;;;;;;10.45;3.42;;;12.30;64.00;;;;;;5100876;28;20022;-73
2021/03/18 11:24:20;;;;;;;8.95;4.15;;;12.30;64.60;;;;;;5099558;28;20020;-73
2021/03/18 11:26:52;;;;;;;12.90;4.97;;;12.30;63.70;;;;;;5099800;28;20041;-73
2021/03/18 11:29:19;;;;;;;;;;;12.30;64.00;;;;;;5102009;28;20034;-73
2021/03/18 11:31:51;;;;;;;14.30;4.25;;;12.40;63.50;;;;;;5099663;28;19922;-74
2021/03/18 11:34:30;;;;;;;8.38;3.45;;;12.30;63.90;;;;;;5103326;28;20027;-75
2021/03/18 11:37:08;;;;;;;10.18;3.88;;;12.30;63.70;;;;;;5102622;28;20508;-73
2021/03/18 11:39:35;;;;;;;11.02;3.15;;;12.30;63.30;;;;;;5103327;28;20031;-73
2021/03/18 11:42:02;;;;;;;5.88;3.42;;;12.20;64.90;;;;;;5100565;28;20024;-73
2021/03/18 11:44:30;;;;;;;13.45;3.92;;;12.20;64.20;;;;;;5102047;28;20035;-73
2021/03/18 11:47:05;;;;;;;10.63;3.60;;;12.20;64.20;;;;;;5100914;28;20028;-73
2021/03/18 11:49:31;;;;;;;9.85;3.60;;;12.20;63.60;;;;;;5102371;28;20523;-73
2021/03/18 11:51:59;;;;;;;6.25;3.17;;;12.10;64.00;;;;;;5103241;28;20028;-73
2021/03/18 11:54:25;;;;;;;12.00;3.75;;;12.10;64.00;;;;;;5104366;28;20047;-73
2021/03/18 11:56:52;;;;;;;8.13;2.90;;;12.10;64.20;;;;;;5104726;28;20028;-73
2021/03/18 11:59:18;;;;;;;6.85;3.00;;;12.00;65.00;;;;;;5104781;28;20178;-73
2021/03/18 12:01:46;;;;;;;12.52;4.13;;;12.00;65.40;;;;;;5102978;28;20031;-73
2021/03/18 12:04:13;;;;;;;18.10;5.32;;;12.00;64.70;;;;;;5099218;28;20024;-72
2021/03/18 12:06:39;;;;;;;7.10;2.80;;;12.10;64.30;;;;;;5101946;28;20021;-73
2021/03/18 12:09:06;;;;;;;12.95;4.40;;;12.00;64.80;;;;;;5100825;28;20028;-72
2021/03/18 12:11:34;;;;;;;5.88;3.05;;;12.00;64.80;;;;;;5096972;28;20038;-73
2021/03/18 12:14:00;;;;;;;9.73;3.50;;;12.00;64.80;;;;;;5099519;28;20038;-73
2021/03/18 12:16:26;;;;;;;19.10;5.60;;;12.10;64.50;;;;;;5103612;28;20031;-73
2021/03/18 12:18:53;;;;;;;8.80;4.05;;;12.10;63.80;;;;;;5101217;28;20034;-73
2021/03/18 12:21:19;;;;;;;14.90;4.03;;;12.10;63.40;;;;;;5100723;28;20081;-73
2021/03/18 12:23:46;;;;;;;8.70;3.80;;;12.20;63.80;;;;;;5102739;28;20400;-73
2021/03/18 12:26:13;;;;;;;9.27;3.72;;;12.20;63.70;;;;;;5097544;28;20016;-72
2021/03/18 12:28:39;;;;;;;15.30;4.82;;;12.10;64.70;;;;;;5100504;28;20457;-72
2021/03/18 12:31:06;;;;;;;10.30;3.75;;;12.10;64.40;;;;;;5098581;28;20092;-73
2021/03/18 12:33:32;;;;;;;6.80;3.47;;;11.90;65.30;;;;;;5103650;28;20452;-72
2021/03/18 12:35:59;;;;;;;8.90;3.95;;;11.90;65.10;;;;;;5103572;28;20079;-74
2021/03/18 12:38:25;;;;;;;9.88;3.70;;;11.80;64.30;;;;;;5105723;28;20026;-73
2021/03/18 12:40:53;;;;;;;5.13;3.72;;;11.90;64.60;;;;;;5105862;28;20021;-72
2021/03/18 12:43:23;;;;;;;15.05;4.43;;;11.90;64.80;;;;;;5102188;28;20370;-73
2021/03/18 12:45:50;;;;;;;8.35;3.92;;;11.90;65.20;;;;;;5102306;28;20027;-73
2021/03/18 12:48:17;;;;;;;11.80;3.95;;;11.80;65.80;;;;;;5102719;28;20357;-73
2021/03/18 12:50:44;;;;;;;11.73;4.22;;;11.90;65.00;;;;;;5103645;28;20051;-73
2021/03/18 12:53:10;;;;;;;8.73;4.03;;;11.80;66.00;;;;;;5103908;28;20353;-73
2021/03/18 12:55:37;;;;;;;4.63;3.30;;;11.70;66.80;;;;;;5103381;28;20140;-73
2021/03/18 12:58:04;;;;;;;11.13;4.35;;;11.70;66.60;;;;;;5105856;28;20066;-73
2021/03/18 13:00:34;;;;;;;11.25;4.53;;;11.70;65.70;;;;;;5104652;28;20043;-74
2021/03/18 13:03:00;;;;;;;17.08;5.65;;;11.80;66.20;;;;;;5099469;28;20094;-72